sensor_id;sensor_type;location;lat;lon;timestamp;P1;durP1;ratioP1;P2;durP2;ratioP2
45408;SDS011;31162;51.076;3.784;2022-11-27T00:03:37;9.35;;;6.38;;
45408;SDS011;31162;51.076;3.784;2022-11-27T00:06:03;10.15;;;6.43;;
45408;SDS011;31162;51.076;3.784;2022-11-27T00:08:29;9.05;;;6.35;;
45408;SDS011;31162;51.076;3.784;2022-11-27T00:10:55;8.98;;;7.13;;
45408;SDS011;31162;51.076;3.784;2022-11-27T00:13:20;12.75;;;6.97;;
45408;SDS011;31162;51.076;3.784;2022-11-27T00:15:46;11.23;;;6.70;;
45408;SDS011;31162;51.076;3.784;2022-11-27T00:18:12;11.00;;;6.07;;
45408;SDS011;31162;51.076;3.784;2022-11-27T00:20:37;9.07;;;6.88;;
45408;SDS011;31162;51.076;3.784;2022-11-27T00:23:03;8.05;;;5.88;;
45408;SDS011;31162;51.076;3.784;2022-11-27T00:25:29;9.00;;;6.63;;
45408;SDS011;31162;51.076;3.784;2022-11-27T00:27:54;11.10;;;6.38;;
45408;SDS011;31162;51.076;3.784;2022-11-27T00:30:20;11.75;;;6.30;;
45408;SDS011;31162;51.076;3.784;2022-11-27T00:32:46;7.93;;;5.57;;
45408;SDS011;31162;51.076;3.784;2022-11-27T00:35:11;8.43;;;6.00;;
45408;SDS011;31162;51.076;3.784;2022-11-27T00:37:37;11.10;;;5.90;;
45408;SDS011;31162;51.076;3.784;2022-11-27T00:40:03;8.27;;;5.30;;
45408;SDS011;31162;51.076;3.784;2022-11-27T00:42:29;11.32;;;6.25;;
45408;SDS011;31162;51.076;3.784;2022-11-27T00:44:55;10.07;;;6.20;;
45408;SDS011;31162;51.076;3.784;2022-11-27T00:47:20;7.97;;;5.88;;
45408;SDS011;31162;51.076;3.784;2022-11-27T00:49:46;9.95;;;5.95;;
45408;SDS011;31162;51.076;3.784;2022-11-27T00:52:12;8.98;;;5.65;;
45408;SDS011;31162;51.076;3.784;2022-11-27T00:54:37;8.40;;;4.97;;
45408;SDS011;31162;51.076;3.784;2022-11-27T00:57:03;10.93;;;5.60;;
45408;SDS011;31162;51.076;3.784;2022-11-27T00:59:29;7.90;;;5.43;;
45408;SDS011;31162;51.076;3.784;2022-11-27T01:01:55;8.48;;;5.50;;
45408;SDS011;31162;51.076;3.784;2022-11-27T01:04:20;6.15;;;4.80;;
45408;SDS011;31162;51.076;3.784;2022-11-27T01:06:46;6.85;;;5.50;;
45408;SDS011;31162;51.076;3.784;2022-11-27T01:09:12;11.07;;;5.57;;
45408;SDS011;31162;51.076;3.784;2022-11-27T01:11:39;9.80;;;5.38;;
45408;SDS011;31162;51.076;3.784;2022-11-27T01:14:07;12.13;;;5.22;;
45408;SDS011;31162;51.076;3.784;2022-11-27T01:16:36;9.02;;;5.57;;
45408;SDS011;31162;51.076;3.784;2022-11-27T01:19:02;10.52;;;5.63;;
45408;SDS011;31162;51.076;3.784;2022-11-27T01:21:29;9.52;;;5.50;;
45408;SDS011;31162;51.076;3.784;2022-11-27T01:23:57;8.40;;;4.82;;
45408;SDS011;31162;51.076;3.784;2022-11-27T01:26:23;10.32;;;5.32;;
45408;SDS011;31162;51.076;3.784;2022-11-27T01:28:53;9.05;;;6.03;;
45408;SDS011;31162;51.076;3.784;2022-11-27T01:31:21;9.10;;;5.50;;
45408;SDS011;31162;51.076;3.784;2022-11-27T01:33:53;11.07;;;5.50;;
45408;SDS011;31162;51.076;3.784;2022-11-27T01:36:20;12.73;;;6.60;;
45408;SDS011;31162;51.076;3.784;2022-11-27T01:38:46;11.77;;;5.70;;
45408;SDS011;31162;51.076;3.784;2022-11-27T01:41:13;10.95;;;5.45;;
45408;SDS011;31162;51.076;3.784;2022-11-27T01:43:40;10.57;;;5.78;;
45408;SDS011;31162;51.076;3.784;2022-11-27T01:48:56;10.30;;;5.95;;
45408;SDS011;31162;51.076;3.784;2022-11-27T01:51:45;8.48;;;5.28;;
45408;SDS011;31162;51.076;3.784;2022-11-27T01:54:19;9.23;;;5.78;;
45408;SDS011;31162;51.076;3.784;2022-11-27T01:56:49;9.27;;;5.32;;
45408;SDS011;31162;51.076;3.784;2022-11-27T01:59:20;12.73;;;6.43;;
45408;SDS011;31162;51.076;3.784;2022-11-27T02:01:47;9.00;;;4.90;;
45408;SDS011;31162;51.076;3.784;2022-11-27T02:04:12;9.85;;;5.63;;
45408;SDS011;31162;51.076;3.784;2022-11-27T02:06:38;10.27;;;5.55;;
45408;SDS011;31162;51.076;3.784;2022-11-27T02:09:04;8.23;;;4.80;;
45408;SDS011;31162;51.076;3.784;2022-11-27T02:11:33;8.05;;;4.63;;
45408;SDS011;31162;51.076;3.784;2022-11-27T02:20:18;6.68;;;4.40;;
45408;SDS011;31162;51.076;3.784;2022-11-27T02:28:34;10.73;;;4.90;;
45408;SDS011;31162;51.076;3.784;2022-11-27T02:30:40;12.68;;;5.10;;
45408;SDS011;31162;51.076;3.784;2022-11-27T02:33:11;11.35;;;5.40;;
45408;SDS011;31162;51.076;3.784;2022-11-27T02:38:14;12.30;;;5.40;;
45408;SDS011;31162;51.076;3.784;2022-11-27T02:40:46;10.35;;;4.80;;
45408;SDS011;31162;51.076;3.784;2022-11-27T02:43:23;9.45;;;4.55;;
45408;SDS011;31162;51.076;3.784;2022-11-27T02:45:54;14.02;;;5.22;;
45408;SDS011;31162;51.076;3.784;2022-11-27T02:48:24;8.68;;;4.63;;
45408;SDS011;31162;51.076;3.784;2022-11-27T02:50:55;7.63;;;4.30;;
45408;SDS011;31162;51.076;3.784;2022-11-27T02:53:22;10.75;;;5.53;;
45408;SDS011;31162;51.076;3.784;2022-11-27T02:56:02;8.83;;;5.13;;
45408;SDS011;31162;51.076;3.784;2022-11-27T02:58:31;11.65;;;5.18;;
45408;SDS011;31162;51.076;3.784;2022-11-27T03:01:00;12.68;;;4.55;;
45408;SDS011;31162;51.076;3.784;2022-11-27T03:03:28;8.23;;;4.38;;
45408;SDS011;31162;51.076;3.784;2022-11-27T03:06:02;6.38;;;4.07;;
45408;SDS011;31162;51.076;3.784;2022-11-27T03:11:09;11.15;;;4.90;;
45408;SDS011;31162;51.076;3.784;2022-11-27T03:13:38;12.07;;;4.60;;
45408;SDS011;31162;51.076;3.784;2022-11-27T03:19:05;8.88;;;4.20;;
45408;SDS011;31162;51.076;3.784;2022-11-27T03:21:40;14.05;;;4.50;;
45408;SDS011;31162;51.076;3.784;2022-11-27T03:24:08;11.13;;;4.47;;
45408;SDS011;31162;51.076;3.784;2022-11-27T03:26:35;12.02;;;4.53;;
45408;SDS011;31162;51.076;3.784;2022-11-27T03:29:02;10.18;;;4.25;;
45408;SDS011;31162;51.076;3.784;2022-11-27T03:31:34;10.38;;;4.57;;
45408;SDS011;31162;51.076;3.784;2022-11-27T03:34:01;14.27;;;4.07;;
45408;SDS011;31162;51.076;3.784;2022-11-27T03:36:27;11.00;;;4.15;;
45408;SDS011;31162;51.076;3.784;2022-11-27T03:38:53;8.15;;;4.07;;
45408;SDS011;31162;51.076;3.784;2022-11-27T03:44:04;9.23;;;3.80;;
45408;SDS011;31162;51.076;3.784;2022-11-27T03:52:34;10.10;;;4.15;;
45408;SDS011;31162;51.076;3.784;2022-11-27T03:55:07;9.88;;;3.95;;
45408;SDS011;31162;51.076;3.784;2022-11-27T03:57:46;10.90;;;4.32;;
45408;SDS011;31162;51.076;3.784;2022-11-27T04:00:21;8.57;;;4.20;;
45408;SDS011;31162;51.076;3.784;2022-11-27T04:02:51;8.52;;;3.80;;
45408;SDS011;31162;51.076;3.784;2022-11-27T04:05:17;14.10;;;4.40;;
45408;SDS011;31162;51.076;3.784;2022-11-27T04:07:43;8.20;;;3.67;;
45408;SDS011;31162;51.076;3.784;2022-11-27T04:10:10;11.20;;;4.40;;
45408;SDS011;31162;51.076;3.784;2022-11-27T04:12:36;11.48;;;4.35;;
45408;SDS011;31162;51.076;3.784;2022-11-27T04:15:02;8.65;;;3.80;;
45408;SDS011;31162;51.076;3.784;2022-11-27T04:17:29;9.25;;;3.90;;
45408;SDS011;31162;51.076;3.784;2022-11-27T04:19:55;9.13;;;4.00;;
45408;SDS011;31162;51.076;3.784;2022-11-27T04:22:21;8.55;;;3.85;;
45408;SDS011;31162;51.076;3.784;2022-11-27T04:24:47;5.82;;;3.92;;
45408;SDS011;31162;51.076;3.784;2022-11-27T04:27:12;7.07;;;3.85;;
45408;SDS011;31162;51.076;3.784;2022-11-27T04:29:38;10.35;;;4.45;;
45408;SDS011;31162;51.076;3.784;2022-11-27T04:32:03;8.65;;;4.05;;
45408;SDS011;31162;51.076;3.784;2022-11-27T04:34:30;12.20;;;4.35;;
45408;SDS011;31162;51.076;3.784;2022-11-27T04:36:58;8.45;;;3.85;;
45408;SDS011;31162;51.076;3.784;2022-11-27T04:39:24;6.40;;;3.92;;
45408;SDS011;31162;51.076;3.784;2022-11-27T04:41:50;7.03;;;3.67;;
45408;SDS011;31162;51.076;3.784;2022-11-27T04:44:15;9.80;;;4.57;;
45408;SDS011;31162;51.076;3.784;2022-11-27T04:46:41;8.32;;;4.05;;
45408;SDS011;31162;51.076;3.784;2022-11-27T04:49:08;8.63;;;4.65;;
45408;SDS011;31162;51.076;3.784;2022-11-27T04:51:34;8.07;;;4.10;;
45408;SDS011;31162;51.076;3.784;2022-11-27T04:53:59;12.07;;;4.75;;
45408;SDS011;31162;51.076;3.784;2022-11-27T04:56:25;9.18;;;4.30;;
45408;SDS011;31162;51.076;3.784;2022-11-27T04:58:51;7.28;;;4.10;;
45408;SDS011;31162;51.076;3.784;2022-11-27T05:01:16;8.23;;;4.90;;
45408;SDS011;31162;51.076;3.784;2022-11-27T05:03:42;11.57;;;4.97;;
45408;SDS011;31162;51.076;3.784;2022-11-27T05:06:08;8.25;;;4.50;;
45408;SDS011;31162;51.076;3.784;2022-11-27T05:08:33;8.65;;;4.40;;
45408;SDS011;31162;51.076;3.784;2022-11-27T05:13:29;6.60;;;4.75;;
45408;SDS011;31162;51.076;3.784;2022-11-27T05:15:55;9.70;;;5.10;;
45408;SDS011;31162;51.076;3.784;2022-11-27T05:18:21;11.32;;;4.88;;
45408;SDS011;31162;51.076;3.784;2022-11-27T05:20:54;10.57;;;5.00;;
45408;SDS011;31162;51.076;3.784;2022-11-27T05:23:24;11.80;;;4.60;;
45408;SDS011;31162;51.076;3.784;2022-11-27T05:25:51;11.13;;;5.00;;
45408;SDS011;31162;51.076;3.784;2022-11-27T05:28:17;10.55;;;4.80;;
45408;SDS011;31162;51.076;3.784;2022-11-27T05:30:42;10.27;;;5.18;;
45408;SDS011;31162;51.076;3.784;2022-11-27T05:33:09;10.88;;;5.30;;
45408;SDS011;31162;51.076;3.784;2022-11-27T05:35:35;9.65;;;4.65;;
45408;SDS011;31162;51.076;3.784;2022-11-27T05:38:00;11.32;;;4.93;;
45408;SDS011;31162;51.076;3.784;2022-11-27T05:40:26;6.45;;;4.40;;
45408;SDS011;31162;51.076;3.784;2022-11-27T05:42:52;8.27;;;4.82;;
45408;SDS011;31162;51.076;3.784;2022-11-27T05:45:17;11.50;;;4.95;;
45408;SDS011;31162;51.076;3.784;2022-11-27T05:47:43;9.50;;;4.70;;
45408;SDS011;31162;51.076;3.784;2022-11-27T05:50:09;8.73;;;4.18;;
45408;SDS011;31162;51.076;3.784;2022-11-27T05:52:34;10.80;;;5.30;;
45408;SDS011;31162;51.076;3.784;2022-11-27T05:55:00;7.63;;;4.75;;
45408;SDS011;31162;51.076;3.784;2022-11-27T05:57:26;9.05;;;5.13;;
45408;SDS011;31162;51.076;3.784;2022-11-27T05:59:52;7.28;;;4.43;;
45408;SDS011;31162;51.076;3.784;2022-11-27T06:02:18;10.15;;;4.90;;
45408;SDS011;31162;51.076;3.784;2022-11-27T06:04:43;11.57;;;4.70;;
45408;SDS011;31162;51.076;3.784;2022-11-27T06:07:09;9.43;;;4.93;;
45408;SDS011;31162;51.076;3.784;2022-11-27T06:09:38;9.30;;;4.82;;
45408;SDS011;31162;51.076;3.784;2022-11-27T06:12:03;9.80;;;4.75;;
45408;SDS011;31162;51.076;3.784;2022-11-27T06:14:29;9.35;;;5.10;;
45408;SDS011;31162;51.076;3.784;2022-11-27T06:16:56;9.52;;;5.72;;
45408;SDS011;31162;51.076;3.784;2022-11-27T06:19:22;9.68;;;5.15;;
45408;SDS011;31162;51.076;3.784;2022-11-27T06:21:47;9.05;;;5.50;;
45408;SDS011;31162;51.076;3.784;2022-11-27T06:24:13;10.95;;;5.13;;
45408;SDS011;31162;51.076;3.784;2022-11-27T06:26:39;11.48;;;6.88;;
45408;SDS011;31162;51.076;3.784;2022-11-27T06:29:04;20.77;;;13.95;;
45408;SDS011;31162;51.076;3.784;2022-11-27T06:31:31;12.52;;;6.38;;
45408;SDS011;31162;51.076;3.784;2022-11-27T06:33:57;10.60;;;4.97;;
45408;SDS011;31162;51.076;3.784;2022-11-27T06:36:26;11.93;;;5.68;;
45408;SDS011;31162;51.076;3.784;2022-11-27T06:38:53;9.77;;;5.80;;
45408;SDS011;31162;51.076;3.784;2022-11-27T06:41:20;11.52;;;5.38;;
45408;SDS011;31162;51.076;3.784;2022-11-27T06:43:48;9.85;;;5.00;;
45408;SDS011;31162;51.076;3.784;2022-11-27T06:46:15;9.52;;;5.50;;
45408;SDS011;31162;51.076;3.784;2022-11-27T06:48:43;8.43;;;5.07;;
45408;SDS011;31162;51.076;3.784;2022-11-27T06:51:14;10.85;;;4.63;;
45408;SDS011;31162;51.076;3.784;2022-11-27T06:56:11;8.00;;;4.47;;
45408;SDS011;31162;51.076;3.784;2022-11-27T06:58:39;9.23;;;5.28;;
45408;SDS011;31162;51.076;3.784;2022-11-27T07:01:06;10.10;;;5.32;;
45408;SDS011;31162;51.076;3.784;2022-11-27T07:03:33;9.95;;;5.55;;
45408;SDS011;31162;51.076;3.784;2022-11-27T07:06:03;10.07;;;5.03;;
45408;SDS011;31162;51.076;3.784;2022-11-27T07:08:30;10.60;;;5.57;;
45408;SDS011;31162;51.076;3.784;2022-11-27T07:11:03;7.75;;;5.45;;
45408;SDS011;31162;51.076;3.784;2022-11-27T07:13:30;10.40;;;5.00;;
45408;SDS011;31162;51.076;3.784;2022-11-27T07:16:02;9.85;;;5.30;;
45408;SDS011;31162;51.076;3.784;2022-11-27T07:18:35;8.50;;;6.13;;
45408;SDS011;31162;51.076;3.784;2022-11-27T07:21:11;10.95;;;6.18;;
45408;SDS011;31162;51.076;3.784;2022-11-27T07:23:37;12.55;;;6.22;;
45408;SDS011;31162;51.076;3.784;2022-11-27T07:26:25;9.90;;;5.28;;
45408;SDS011;31162;51.076;3.784;2022-11-27T07:28:50;11.60;;;5.97;;
45408;SDS011;31162;51.076;3.784;2022-11-27T07:31:17;11.95;;;7.35;;
45408;SDS011;31162;51.076;3.784;2022-11-27T07:33:44;12.10;;;5.50;;
45408;SDS011;31162;51.076;3.784;2022-11-27T07:36:15;9.02;;;5.50;;
45408;SDS011;31162;51.076;3.784;2022-11-27T07:38:42;10.65;;;6.07;;
45408;SDS011;31162;51.076;3.784;2022-11-27T07:41:09;13.02;;;6.43;;
45408;SDS011;31162;51.076;3.784;2022-11-27T07:43:35;10.23;;;6.70;;
45408;SDS011;31162;51.076;3.784;2022-11-27T07:46:04;10.98;;;6.70;;
45408;SDS011;31162;51.076;3.784;2022-11-27T07:48:35;11.10;;;7.18;;
45408;SDS011;31162;51.076;3.784;2022-11-27T07:51:04;10.95;;;5.90;;
45408;SDS011;31162;51.076;3.784;2022-11-27T07:53:30;11.27;;;8.73;;
45408;SDS011;31162;51.076;3.784;2022-11-27T07:55:59;12.77;;;6.82;;
45408;SDS011;31162;51.076;3.784;2022-11-27T07:58:25;10.30;;;5.78;;
45408;SDS011;31162;51.076;3.784;2022-11-27T08:00:51;7.95;;;6.57;;
45408;SDS011;31162;51.076;3.784;2022-11-27T08:03:16;7.63;;;6.15;;
45408;SDS011;31162;51.076;3.784;2022-11-27T08:05:42;12.63;;;7.53;;
45408;SDS011;31162;51.076;3.784;2022-11-27T08:08:07;8.27;;;6.13;;
45408;SDS011;31162;51.076;3.784;2022-11-27T08:10:33;9.63;;;5.93;;
45408;SDS011;31162;51.076;3.784;2022-11-27T08:13:00;10.95;;;6.80;;
45408;SDS011;31162;51.076;3.784;2022-11-27T08:15:25;7.50;;;5.35;;
45408;SDS011;31162;51.076;3.784;2022-11-27T08:17:51;9.43;;;6.30;;
45408;SDS011;31162;51.076;3.784;2022-11-27T08:20:17;11.27;;;6.43;;
45408;SDS011;31162;51.076;3.784;2022-11-27T08:22:43;10.52;;;6.22;;
45408;SDS011;31162;51.076;3.784;2022-11-27T08:25:09;10.02;;;6.95;;
45408;SDS011;31162;51.076;3.784;2022-11-27T08:27:35;10.90;;;6.63;;
45408;SDS011;31162;51.076;3.784;2022-11-27T08:30:01;14.32;;;6.70;;
45408;SDS011;31162;51.076;3.784;2022-11-27T08:32:26;10.65;;;6.82;;
45408;SDS011;31162;51.076;3.784;2022-11-27T08:34:52;9.48;;;6.50;;
45408;SDS011;31162;51.076;3.784;2022-11-27T08:37:18;10.43;;;7.10;;
45408;SDS011;31162;51.076;3.784;2022-11-27T08:39:43;11.52;;;7.03;;
45408;SDS011;31162;51.076;3.784;2022-11-27T08:42:09;8.73;;;7.15;;
45408;SDS011;31162;51.076;3.784;2022-11-27T08:44:34;11.05;;;7.35;;
45408;SDS011;31162;51.076;3.784;2022-11-27T08:47:00;10.73;;;7.38;;
45408;SDS011;31162;51.076;3.784;2022-11-27T08:49:26;11.60;;;6.90;;
45408;SDS011;31162;51.076;3.784;2022-11-27T08:51:51;9.57;;;6.68;;
45408;SDS011;31162;51.076;3.784;2022-11-27T08:54:17;12.05;;;7.03;;
45408;SDS011;31162;51.076;3.784;2022-11-27T08:56:42;14.00;;;7.38;;
45408;SDS011;31162;51.076;3.784;2022-11-27T08:59:08;12.00;;;7.20;;
45408;SDS011;31162;51.076;3.784;2022-11-27T09:01:34;11.32;;;7.30;;
45408;SDS011;31162;51.076;3.784;2022-11-27T09:04:00;10.02;;;6.90;;
45408;SDS011;31162;51.076;3.784;2022-11-27T09:06:28;10.57;;;7.72;;
45408;SDS011;31162;51.076;3.784;2022-11-27T09:08:55;13.32;;;7.35;;
45408;SDS011;31162;51.076;3.784;2022-11-27T09:11:25;9.38;;;6.95;;
45408;SDS011;31162;51.076;3.784;2022-11-27T09:13:52;17.55;;;9.25;;
45408;SDS011;31162;51.076;3.784;2022-11-27T09:16:18;17.27;;;11.48;;
45408;SDS011;31162;51.076;3.784;2022-11-27T09:18:46;14.57;;;7.38;;
45408;SDS011;31162;51.076;3.784;2022-11-27T09:21:13;9.90;;;7.22;;
45408;SDS011;31162;51.076;3.784;2022-11-27T09:23:40;10.13;;;7.00;;
45408;SDS011;31162;51.076;3.784;2022-11-27T09:26:13;9.93;;;7.60;;
45408;SDS011;31162;51.076;3.784;2022-11-27T09:28:41;12.57;;;7.05;;
45408;SDS011;31162;51.076;3.784;2022-11-27T09:31:08;11.20;;;6.20;;
45408;SDS011;31162;51.076;3.784;2022-11-27T09:33:36;10.80;;;7.38;;
45408;SDS011;31162;51.076;3.784;2022-11-27T09:36:13;13.55;;;7.10;;
45408;SDS011;31162;51.076;3.784;2022-11-27T09:38:40;11.98;;;7.40;;
45408;SDS011;31162;51.076;3.784;2022-11-27T09:43:47;13.73;;;7.45;;
45408;SDS011;31162;51.076;3.784;2022-11-27T09:46:50;10.93;;;7.22;;
45408;SDS011;31162;51.076;3.784;2022-11-27T09:49:13;10.40;;;7.28;;
45408;SDS011;31162;51.076;3.784;2022-11-27T09:52:07;11.57;;;7.80;;
45408;SDS011;31162;51.076;3.784;2022-11-27T09:54:51;13.82;;;9.95;;
45408;SDS011;31162;51.076;3.784;2022-11-27T09:57:31;15.00;;;8.48;;
45408;SDS011;31162;51.076;3.784;2022-11-27T10:00:33;27.27;;;14.23;;
45408;SDS011;31162;51.076;3.784;2022-11-27T10:02:52;31.60;;;16.33;;
45408;SDS011;31162;51.076;3.784;2022-11-27T10:13:50;54.15;;;33.83;;
45408;SDS011;31162;51.076;3.784;2022-11-27T10:16:24;12.30;;;8.65;;
45408;SDS011;31162;51.076;3.784;2022-11-27T10:21:46;9.80;;;7.95;;
45408;SDS011;31162;51.076;3.784;2022-11-27T10:24:20;11.48;;;8.07;;
45408;SDS011;31162;51.076;3.784;2022-11-27T10:27:00;11.13;;;7.10;;
45408;SDS011;31162;51.076;3.784;2022-11-27T10:29:35;13.60;;;7.90;;
45408;SDS011;31162;51.076;3.784;2022-11-27T10:32:05;12.32;;;7.30;;
45408;SDS011;31162;51.076;3.784;2022-11-27T10:34:39;10.38;;;8.07;;
45408;SDS011;31162;51.076;3.784;2022-11-27T10:40:04;11.02;;;7.82;;
45408;SDS011;31162;51.076;3.784;2022-11-27T10:48:28;13.70;;;7.93;;
45408;SDS011;31162;51.076;3.784;2022-11-27T10:50:54;11.18;;;7.50;;
45408;SDS011;31162;51.076;3.784;2022-11-27T10:55:57;10.70;;;7.55;;
45408;SDS011;31162;51.076;3.784;2022-11-27T11:01:17;11.73;;;7.60;;
45408;SDS011;31162;51.076;3.784;2022-11-27T11:03:44;11.15;;;8.18;;
45408;SDS011;31162;51.076;3.784;2022-11-27T11:06:14;10.90;;;7.53;;
45408;SDS011;31162;51.076;3.784;2022-11-27T11:08:58;9.82;;;7.90;;
45408;SDS011;31162;51.076;3.784;2022-11-27T11:11:37;10.27;;;7.13;;
45408;SDS011;31162;51.076;3.784;2022-11-27T11:14:02;12.85;;;7.88;;
45408;SDS011;31162;51.076;3.784;2022-11-27T11:16:40;12.35;;;7.97;;
45408;SDS011;31162;51.076;3.784;2022-11-27T11:19:19;8.95;;;7.85;;
45408;SDS011;31162;51.076;3.784;2022-11-27T11:21:45;10.23;;;7.57;;
45408;SDS011;31162;51.076;3.784;2022-11-27T11:24:13;11.50;;;7.80;;
45408;SDS011;31162;51.076;3.784;2022-11-27T11:26:47;13.02;;;7.72;;
45408;SDS011;31162;51.076;3.784;2022-11-27T11:32:10;11.15;;;8.77;;
45408;SDS011;31162;51.076;3.784;2022-11-27T11:34:54;11.07;;;7.78;;
45408;SDS011;31162;51.076;3.784;2022-11-27T11:37:25;12.40;;;9.60;;
45408;SDS011;31162;51.076;3.784;2022-11-27T11:40:00;13.48;;;10.98;;
45408;SDS011;31162;51.076;3.784;2022-11-27T11:42:36;12.98;;;10.52;;
45408;SDS011;31162;51.076;3.784;2022-11-27T11:45:15;9.63;;;8.10;;
45408;SDS011;31162;51.076;3.784;2022-11-27T11:47:50;12.95;;;10.02;;
45408;SDS011;31162;51.076;3.784;2022-11-27T11:55:26;19.67;;;11.93;;
45408;SDS011;31162;51.076;3.784;2022-11-27T12:00:46;21.08;;;18.08;;
45408;SDS011;31162;51.076;3.784;2022-11-27T12:09:26;12.15;;;7.50;;
45408;SDS011;31162;51.076;3.784;2022-11-27T12:12:18;8.82;;;7.05;;
45408;SDS011;31162;51.076;3.784;2022-11-27T12:14:49;13.05;;;8.75;;
45408;SDS011;31162;51.076;3.784;2022-11-27T12:17:37;17.02;;;11.20;;
45408;SDS011;31162;51.076;3.784;2022-11-27T12:20:17;12.20;;;9.73;;
45408;SDS011;31162;51.076;3.784;2022-11-27T12:25:45;36.92;;;26.63;;
45408;SDS011;31162;51.076;3.784;2022-11-27T12:31:08;14.98;;;11.95;;
45408;SDS011;31162;51.076;3.784;2022-11-27T12:34:01;12.90;;;8.95;;
45408;SDS011;31162;51.076;3.784;2022-11-27T12:47:20;62.47;;;41.22;;
45408;SDS011;31162;51.076;3.784;2022-11-27T12:50:06;27.30;;;24.33;;
45408;SDS011;31162;51.076;3.784;2022-11-27T12:52:39;17.85;;;15.93;;
45408;SDS011;31162;51.076;3.784;2022-11-27T12:55:12;18.55;;;16.85;;
45408;SDS011;31162;51.076;3.784;2022-11-27T12:57:42;37.23;;;33.33;;
45408;SDS011;31162;51.076;3.784;2022-11-27T13:00:13;25.05;;;21.02;;
45408;SDS011;31162;51.076;3.784;2022-11-27T13:02:46;13.55;;;10.15;;
45408;SDS011;31162;51.076;3.784;2022-11-27T13:08:48;9.57;;;7.75;;
45408;SDS011;31162;51.076;3.784;2022-11-27T13:11:36;10.13;;;8.73;;
45408;SDS011;31162;51.076;3.784;2022-11-27T13:16:42;7.78;;;6.90;;
45408;SDS011;31162;51.076;3.784;2022-11-27T13:21:46;11.07;;;9.98;;
45408;SDS011;31162;51.076;3.784;2022-11-27T13:24:13;11.55;;;8.20;;
45408;SDS011;31162;51.076;3.784;2022-11-27T13:29:36;26.65;;;24.45;;
45408;SDS011;31162;51.076;3.784;2022-11-27T13:32:15;10.65;;;9.43;;
45408;SDS011;31162;51.076;3.784;2022-11-27T13:34:49;19.33;;;16.30;;
45408;SDS011;31162;51.076;3.784;2022-11-27T13:37:26;35.00;;;25.85;;
45408;SDS011;31162;51.076;3.784;2022-11-27T13:39:57;22.55;;;16.77;;
45408;SDS011;31162;51.076;3.784;2022-11-27T13:42:45;25.73;;;17.50;;
45408;SDS011;31162;51.076;3.784;2022-11-27T13:45:18;13.85;;;10.55;;
45408;SDS011;31162;51.076;3.784;2022-11-27T13:47:47;15.98;;;13.18;;
45408;SDS011;31162;51.076;3.784;2022-11-27T13:50:14;13.75;;;10.63;;
45408;SDS011;31162;51.076;3.784;2022-11-27T13:52:56;13.82;;;11.68;;
45408;SDS011;31162;51.076;3.784;2022-11-27T13:55:38;21.73;;;14.77;;
45408;SDS011;31162;51.076;3.784;2022-11-27T13:58:25;13.68;;;11.27;;
45408;SDS011;31162;51.076;3.784;2022-11-27T14:01:10;11.75;;;10.50;;
45408;SDS011;31162;51.076;3.784;2022-11-27T14:03:41;11.85;;;10.57;;
45408;SDS011;31162;51.076;3.784;2022-11-27T14:06:17;10.73;;;9.63;;
45408;SDS011;31162;51.076;3.784;2022-11-27T14:08:55;13.20;;;10.70;;
45408;SDS011;31162;51.076;3.784;2022-11-27T14:11:30;12.02;;;8.70;;
45408;SDS011;31162;51.076;3.784;2022-11-27T14:14:12;11.15;;;9.00;;
45408;SDS011;31162;51.076;3.784;2022-11-27T14:16:51;9.18;;;8.27;;
45408;SDS011;31162;51.076;3.784;2022-11-27T14:19:28;9.63;;;7.28;;
45408;SDS011;31162;51.076;3.784;2022-11-27T14:21:58;13.82;;;9.15;;
45408;SDS011;31162;51.076;3.784;2022-11-27T14:24:40;9.77;;;7.95;;
45408;SDS011;31162;51.076;3.784;2022-11-27T14:27:24;11.50;;;8.55;;
45408;SDS011;31162;51.076;3.784;2022-11-27T14:29:52;12.23;;;9.95;;
45408;SDS011;31162;51.076;3.784;2022-11-27T14:32:18;11.80;;;8.02;;
45408;SDS011;31162;51.076;3.784;2022-11-27T14:34:45;11.80;;;8.35;;
45408;SDS011;31162;51.076;3.784;2022-11-27T14:37:22;11.32;;;8.85;;
45408;SDS011;31162;51.076;3.784;2022-11-27T14:39:49;11.50;;;8.88;;
45408;SDS011;31162;51.076;3.784;2022-11-27T14:42:25;16.95;;;12.40;;
45408;SDS011;31162;51.076;3.784;2022-11-27T14:45:06;12.15;;;10.13;;
45408;SDS011;31162;51.076;3.784;2022-11-27T14:47:34;8.57;;;7.57;;
45408;SDS011;31162;51.076;3.784;2022-11-27T14:50:03;22.15;;;19.92;;
45408;SDS011;31162;51.076;3.784;2022-11-27T14:52:29;9.63;;;8.63;;
45408;SDS011;31162;51.076;3.784;2022-11-27T14:54:55;8.70;;;7.60;;
45408;SDS011;31162;51.076;3.784;2022-11-27T14:57:23;9.93;;;8.80;;
45408;SDS011;31162;51.076;3.784;2022-11-27T15:00:00;9.10;;;7.70;;
45408;SDS011;31162;51.076;3.784;2022-11-27T15:02:39;7.72;;;6.93;;
45408;SDS011;31162;51.076;3.784;2022-11-27T15:05:05;8.27;;;7.45;;
45408;SDS011;31162;51.076;3.784;2022-11-27T15:07:32;9.77;;;7.50;;
45408;SDS011;31162;51.076;3.784;2022-11-27T15:10:01;8.57;;;7.35;;
45408;SDS011;31162;51.076;3.784;2022-11-27T15:12:31;9.38;;;7.93;;
45408;SDS011;31162;51.076;3.784;2022-11-27T15:15:00;8.30;;;6.80;;
45408;SDS011;31162;51.076;3.784;2022-11-27T15:17:33;10.35;;;7.28;;
45408;SDS011;31162;51.076;3.784;2022-11-27T15:20:03;8.57;;;6.70;;
45408;SDS011;31162;51.076;3.784;2022-11-27T15:22:46;10.15;;;6.97;;
45408;SDS011;31162;51.076;3.784;2022-11-27T15:28:36;9.45;;;8.52;;
45408;SDS011;31162;51.076;3.784;2022-11-27T15:33:54;11.23;;;7.03;;
45408;SDS011;31162;51.076;3.784;2022-11-27T15:36:44;7.90;;;6.53;;
45408;SDS011;31162;51.076;3.784;2022-11-27T15:44:21;11.80;;;9.93;;
45408;SDS011;31162;51.076;3.784;2022-11-27T15:46:47;10.10;;;8.45;;
45408;SDS011;31162;51.076;3.784;2022-11-27T15:49:14;9.55;;;7.88;;
45408;SDS011;31162;51.076;3.784;2022-11-27T15:51:40;9.63;;;8.13;;
45408;SDS011;31162;51.076;3.784;2022-11-27T15:54:06;11.90;;;8.32;;
45408;SDS011;31162;51.076;3.784;2022-11-27T15:56:32;12.30;;;9.13;;
45408;SDS011;31162;51.076;3.784;2022-11-27T15:58:57;10.93;;;8.73;;
45408;SDS011;31162;51.076;3.784;2022-11-27T16:01:23;10.88;;;8.80;;
45408;SDS011;31162;51.076;3.784;2022-11-27T16:03:49;12.85;;;10.82;;
45408;SDS011;31162;51.076;3.784;2022-11-27T16:06:14;12.68;;;9.90;;
45408;SDS011;31162;51.076;3.784;2022-11-27T16:08:40;10.50;;;9.40;;
45408;SDS011;31162;51.076;3.784;2022-11-27T16:11:07;12.35;;;10.20;;
45408;SDS011;31162;51.076;3.784;2022-11-27T16:13:37;15.18;;;11.18;;
45408;SDS011;31162;51.076;3.784;2022-11-27T16:16:04;11.88;;;9.50;;
45408;SDS011;31162;51.076;3.784;2022-11-27T16:18:31;11.88;;;9.98;;
45408;SDS011;31162;51.076;3.784;2022-11-27T16:21:05;14.35;;;10.38;;
45408;SDS011;31162;51.076;3.784;2022-11-27T16:23:32;13.18;;;9.75;;
45408;SDS011;31162;51.076;3.784;2022-11-27T16:25:58;12.90;;;9.95;;
45408;SDS011;31162;51.076;3.784;2022-11-27T16:28:24;11.40;;;9.88;;
45408;SDS011;31162;51.076;3.784;2022-11-27T16:30:52;22.65;;;15.75;;
45408;SDS011;31162;51.076;3.784;2022-11-27T16:33:18;13.07;;;11.70;;
45408;SDS011;31162;51.076;3.784;2022-11-27T16:35:45;15.35;;;13.80;;
45408;SDS011;31162;51.076;3.784;2022-11-27T16:38:14;13.00;;;10.70;;
45408;SDS011;31162;51.076;3.784;2022-11-27T16:40:39;13.85;;;12.45;;
45408;SDS011;31162;51.076;3.784;2022-11-27T16:43:05;11.93;;;10.65;;
45408;SDS011;31162;51.076;3.784;2022-11-27T16:45:32;14.23;;;10.98;;
45408;SDS011;31162;51.076;3.784;2022-11-27T16:48:00;13.77;;;11.05;;
45408;SDS011;31162;51.076;3.784;2022-11-27T16:50:26;12.85;;;10.32;;
45408;SDS011;31162;51.076;3.784;2022-11-27T16:52:54;13.60;;;10.55;;
45408;SDS011;31162;51.076;3.784;2022-11-27T16:55:20;13.70;;;11.60;;